Time;durP1;ratioP1;P1;durP2;ratioP2;P2;SDS_P1;SDS_P2;PMS_P1;PMS_P2;Temp;Humidity;BMP_temperature;BMP_pressure;BME280_temperature;BME280_humidity;BME280_pressure;Samples;Min_cycle;Max_cycle;Signal;HPM_P1;HPM_P2
2021/12/04 00:01:53;;;;;;;32.92;18.92;;;128.90;2252.80;;;;;;5033659;28;20030;-63
2021/12/04 00:04:27;;;;;;;37.97;22.83;;;153.70;2252.80;;;;;;5033416;28;20044;-60
2021/12/04 00:06:52;;;;;;;35.00;20.88;;;153.70;2252.80;;;;;;5033180;28;20088;-61
2021/12/04 00:09:21;;;;;;;27.40;16.45;;;153.60;2252.80;;;;;;5033297;28;20021;-63
2021/12/04 00:11:54;;;;;;;61.30;32.22;;;153.80;2252.80;;;;;;5033235;28;20033;-59
2021/12/04 00:14:20;;;;;;;;;;;153.80;2252.80;;;;;;5033614;28;20108;-62
2021/12/04 00:16:46;;;;;;;22.08;12.80;;;153.80;2252.80;;;;;;5033354;28;19975;-60
2021/12/04 00:19:12;;;;;;;21.17;14.32;;;153.60;2252.80;;;;;;5033334;28;20498;-62
2021/12/04 00:21:38;;;;;;;72.13;37.50;;;153.60;2252.80;;;;;;5033292;28;20063;-65
2021/12/04 00:24:04;;;;;;;58.70;33.85;;;153.60;2252.80;;;;;;5033194;28;20034;-67
2021/12/04 00:26:30;;;;;;;31.83;19.90;;;153.80;2252.80;;;;;;5033010;28;20085;-65
2021/12/04 00:28:56;;;;;;;30.17;21.13;;;153.90;2252.80;;;;;;5033091;28;20491;-66
2021/12/04 00:31:21;;;;;;;35.67;21.45;;;153.80;2252.80;;;;;;5032988;28;20034;-59
2021/12/04 00:33:49;;;;;;;18.95;12.40;;;153.70;2252.80;;;;;;5032708;28;20037;-68
2021/12/04 00:49:57;;;;;;;64.40;35.63;;;153.80;2252.80;;;;;;5032883;28;20120;-57
2021/12/04 00:52:23;;;;;;;24.90;15.10;;;153.80;2252.80;;;;;;5032707;28;20080;-60
2021/12/04 00:54:49;;;;;;;20.58;12.02;;;153.90;2252.80;;;;;;5032425;28;20026;-67
2021/12/04 00:57:15;;;;;;;30.52;18.63;;;153.80;2252.80;;;;;;5031670;28;20022;-62
2021/12/04 00:59:40;;;;;;;21.08;13.75;;;153.90;2252.80;;;;;;5031920;28;20120;-56
2021/12/04 01:02:06;;;;;;;22.25;12.95;;;154.00;2252.80;;;;;;5032064;28;20124;-60
2021/12/04 01:04:32;;;;;;;22.50;11.70;;;154.00;2252.80;;;;;;5032395;28;20029;-58
2021/12/04 01:06:59;;;;;;;16.25;11.27;;;153.80;2252.80;;;;;;5032163;28;20033;-66
2021/12/04 01:09:26;;;;;;;20.77;12.60;;;153.80;2252.80;;;;;;5032404;28;20108;-61
2021/12/04 01:11:54;;;;;;;20.90;11.85;;;153.80;2252.80;;;;;;5032100;28;20029;-61
2021/12/04 01:14:26;;;;;;;23.67;13.95;;;153.70;2252.80;;;;;;5031979;28;20029;-65
2021/12/04 01:16:53;;;;;;;20.60;13.13;;;153.70;2252.80;;;;;;5032142;28;20382;-66
2021/12/04 01:19:19;;;;;;;150.60;77.70;;;153.70;2252.80;;;;;;5031875;28;20475;-67
2021/12/04 01:21:48;;;;;;;59.58;31.60;;;153.80;2252.80;;;;;;5032166;28;20426;-61
2021/12/04 01:24:14;;;;;;;21.00;14.88;;;153.70;2252.80;;;;;;5032037;28;20021;-60
2021/12/04 01:26:40;;;;;;;64.25;36.10;;;153.80;2252.80;;;;;;5031861;28;20025;-67
2021/12/04 01:29:06;;;;;;;105.03;54.45;;;153.60;2252.80;;;;;;5031915;28;20036;-69
2021/12/04 01:31:32;;;;;;;36.83;23.35;;;153.60;2252.80;;;;;;5031727;28;20037;-59
2021/12/04 01:33:58;;;;;;;27.73;18.60;;;153.60;2252.80;;;;;;5031741;28;20036;-60
2021/12/04 01:36:24;;;;;;;33.60;23.10;;;153.70;2252.80;;;;;;5031926;28;20025;-60
2021/12/04 01:38:51;;;;;;;42.10;24.02;;;128.90;2252.80;;;;;;5031759;28;20040;-64
2021/12/04 01:41:17;;;;;;;102.30;47.20;;;153.60;2252.80;;;;;;5031639;28;20507;-63
2021/12/04 01:43:43;;;;;;;64.53;33.63;;;153.60;2252.80;;;;;;5030526;28;20434;-63
2021/12/04 01:46:10;;;;;;;27.45;17.20;;;153.70;2252.80;;;;;;5031562;28;20032;-65
2021/12/04 01:48:36;;;;;;;25.58;14.07;;;153.80;2252.80;;;;;;5031760;28;20112;-64
2021/12/04 01:51:01;;;;;;;24.88;15.02;;;153.60;2252.80;;;;;;5031380;28;20104;-65
2021/12/04 01:53:28;;;;;;;37.42;21.67;;;153.60;2252.80;;;;;;5031359;28;20483;-57
2021/12/04 01:55:56;;;;;;;24.67;15.80;;;128.90;2252.80;;;;;;5031495;28;20025;-66
2021/12/04 01:58:23;;;;;;;22.05;15.65;;;128.90;2252.80;;;;;;5031558;28;20017;-62
2021/12/04 02:00:49;;;;;;;24.35;15.38;;;128.90;2252.80;;;;;;5030934;28;20053;-63
2021/12/04 02:03:17;;;;;;;36.03;31.13;;;128.90;2252.80;;;;;;5031327;28;20022;-63
2021/12/04 02:05:42;;;;;;;27.00;18.27;;;128.90;2252.80;;;;;;5031201;28;20037;-69
2021/12/04 02:08:12;;;;;;;117.32;52.92;;;128.90;2252.80;;;;;;5030793;28;20132;-57
2021/12/04 02:10:39;;;;;;;44.15;26.92;;;128.90;2252.80;;;;;;5030115;28;20021;-60
2021/12/04 02:13:05;;;;;;;73.55;37.00;;;128.80;2252.80;;;;;;5030993;28;20468;-62
2021/12/04 02:15:31;;;;;;;220.15;108.82;;;128.90;2252.80;;;;;;5030996;28;20017;-59
2021/12/04 02:17:57;;;;;;;36.63;21.27;;;128.80;2252.80;;;;;;5031193;28;20029;-64
2021/12/04 02:20:27;;;;;;;40.80;23.65;;;128.70;2252.80;;;;;;5031076;28;20084;-62
2021/12/04 02:22:54;;;;;;;111.50;64.10;;;128.60;2252.80;;;;;;5031076;28;20451;-65
2021/12/04 02:25:20;;;;;;;39.00;23.63;;;128.60;2252.80;;;;;;5030582;28;20057;-66
2021/12/04 02:27:47;;;;;;;33.85;20.27;;;128.70;2252.80;;;;;;5030596;28;20037;-63
2021/12/04 02:30:16;;;;;;;27.42;19.05;;;128.70;2252.80;;;;;;5030560;28;20451;-65
2021/12/04 02:32:43;;;;;;;27.13;18.08;;;128.80;2252.80;;;;;;5030594;28;20442;-65
2021/12/04 02:35:10;;;;;;;32.72;18.23;;;128.90;2252.80;;;;;;5030557;28;20373;-63
2021/12/04 02:37:38;;;;;;;28.75;18.65;;;128.90;2252.80;;;;;;5030775;28;20026;-67
2021/12/04 02:40:05;;;;;;;31.42;18.35;;;128.80;2252.80;;;;;;5030627;28;20025;-63
2021/12/04 02:42:31;;;;;;;27.58;18.85;;;128.80;2252.80;;;;;;5029374;28;20021;-68
2021/12/04 02:44:59;;;;;;;28.27;19.60;;;128.40;2252.80;;;;;;5030804;28;20654;-60
2021/12/04 02:47:27;;;;;;;30.10;19.70;;;128.50;2252.80;;;;;;5030594;28;20041;-63
2021/12/04 02:49:53;;;;;;;32.08;21.85;;;128.60;2252.80;;;;;;5030646;28;20033;-67
2021/12/04 02:52:20;;;;;;;36.78;23.88;;;128.70;2252.80;;;;;;5029763;28;20034;-64
2021/12/04 02:54:46;;;;;;;45.55;27.13;;;128.50;2252.80;;;;;;5030427;28;20024;-61
2021/12/04 02:57:14;;;;;;;41.80;24.42;;;128.60;2252.80;;;;;;5030117;28;20379;-64
2021/12/04 02:59:41;;;;;;;37.00;24.52;;;128.50;2252.80;;;;;;5029935;28;20022;-65
2021/12/04 03:02:15;;;;;;;37.78;23.58;;;128.70;2252.80;;;;;;5030517;28;20058;-59
2021/12/04 03:04:41;;;;;;;40.42;23.20;;;128.70;2252.80;;;;;;5030137;28;20109;-69
2021/12/04 03:07:07;;;;;;;33.47;19.92;;;128.70;2252.80;;;;;;5030253;28;20041;-64
2021/12/04 03:09:34;;;;;;;31.80;19.75;;;128.80;2252.80;;;;;;5030231;28;21045;-66
2021/12/04 03:12:06;;;;;;;32.03;19.80;;;128.80;2252.80;;;;;;5029933;28;20018;-63
2021/12/04 03:14:32;;;;;;;30.67;18.85;;;128.80;2252.80;;;;;;5030108;28;20455;-65
2021/12/04 03:16:58;;;;;;;49.20;28.02;;;128.70;2252.80;;;;;;5029897;28;20052;-62
2021/12/04 03:19:25;;;;;;;75.90;45.85;;;128.50;2252.80;;;;;;5030401;28;20029;-66
2021/12/04 03:21:51;;;;;;;25.10;16.08;;;128.70;2252.80;;;;;;5029444;28;20029;-62
2021/12/04 03:24:18;;;;;;;27.88;16.40;;;128.70;2252.80;;;;;;5030107;28;20094;-63
2021/12/04 03:26:46;;;;;;;21.55;14.50;;;128.30;2252.80;;;;;;5030144;28;20109;-57
2021/12/04 03:29:16;;;;;;;21.67;14.95;;;128.20;2252.80;;;;;;5029650;28;20570;-59
2021/12/04 03:42:24;;;;;;;38.22;22.23;;;128.40;2252.80;;;;;;5030093;28;20088;-56
2021/12/04 03:44:50;;;;;;;26.38;17.13;;;128.60;2252.80;;;;;;5029651;28;20108;-56
2021/12/04 03:47:17;;;;;;;29.38;18.67;;;128.60;2252.80;;;;;;5029727;28;20022;-57
2021/12/04 03:49:43;;;;;;;367.23;164.18;;;128.50;2252.80;;;;;;5029971;28;20108;-59
2021/12/04 03:52:09;;;;;;;52.20;29.20;;;128.40;2252.80;;;;;;5029547;28;20026;-55
2021/12/04 03:54:35;;;;;;;138.95;57.88;;;128.40;2252.80;;;;;;5029747;28;20087;-56
2021/12/04 03:57:05;;;;;;;699.15;357.75;;;128.40;2252.80;;;;;;5029434;28;20108;-57
2021/12/04 03:59:32;;;;;;;65.53;36.90;;;128.30;2252.80;;;;;;5029107;28;20041;-56
2021/12/04 04:01:57;;;;;;;54.75;30.55;;;128.40;2252.80;;;;;;5029544;28;20026;-57
2021/12/04 04:04:23;;;;;;;41.78;28.92;;;103.30;2227.20;;;;;;5029821;28;20030;-56
2021/12/04 04:06:49;;;;;;;37.13;22.70;;;128.10;2252.80;;;;;;5029501;28;20041;-58
2021/12/04 04:09:15;;;;;;;51.60;31.83;;;128.20;2252.80;;;;;;5029788;28;20029;-56
2021/12/04 04:11:41;;;;;;;58.85;34.63;;;128.20;2252.80;;;;;;5029402;28;20048;-57
2021/12/04 04:14:08;;;;;;;56.90;34.30;;;128.30;2252.80;;;;;;5029285;28;20101;-58
2021/12/04 04:16:37;;;;;;;51.17;32.13;;;128.40;2252.80;;;;;;5029596;28;20045;-58
2021/12/04 04:19:03;;;;;;;40.30;26.45;;;128.60;2252.80;;;;;;5029482;28;20087;-58
2021/12/04 04:21:30;;;;;;;30.65;20.75;;;128.50;2252.80;;;;;;5029581;28;20026;-56
2021/12/04 04:23:55;;;;;;;37.53;23.27;;;128.50;2252.80;;;;;;5029628;28;20033;-56
2021/12/04 04:26:21;;;;;;;43.55;25.10;;;128.50;2252.80;;;;;;5029118;28;20052;-57
2021/12/04 04:28:47;;;;;;;37.05;25.95;;;128.60;2252.80;;;;;;5029255;28;20041;-57
2021/12/04 04:31:14;;;;;;;38.92;25.20;;;128.60;2252.80;;;;;;5029296;28;20037;-60
2021/12/04 04:33:43;;;;;;;39.20;24.98;;;128.60;2252.80;;;;;;5031790;28;20368;-56
2021/12/04 04:39:40;;;;;;;48.47;30.35;;;128.60;2252.80;;;;;;5030486;28;20068;-56
2021/12/04 05:01:29;;;;;;;37.22;23.67;;;103.20;2227.20;;;;;;5030293;28;20103;-56
2021/12/04 05:14:40;;;;;;;27.75;14.75;;;102.70;2227.20;;;;;;5030958;28;20033;-56
2021/12/04 05:17:10;;;;;;;19.73;13.80;;;102.90;2227.20;;;;;;5032298;28;20104;-58
2021/12/04 05:22:32;;;;;;;26.30;15.32;;;103.20;2227.20;;;;;;5029701;28;20137;-61
2021/12/04 05:24:58;;;;;;;23.38;14.13;;;103.30;2227.20;;;;;;5029724;28;20112;-57
2021/12/04 05:27:23;;;;;;;20.77;12.70;;;128.10;2252.80;;;;;;5029886;28;20180;-62
2021/12/04 05:29:49;;;;;;;18.63;13.77;;;103.30;2227.20;;;;;;5029426;28;20060;-56
2021/12/04 05:32:16;;;;;;;28.40;15.73;;;128.00;2252.80;;;;;;5029671;28;20045;-56
2021/12/04 05:34:42;;;;;;;34.47;20.83;;;103.30;2227.20;;;;;;5029683;28;20055;-56
2021/12/04 05:37:09;;;;;;;44.97;30.15;;;128.10;2252.80;;;;;;5029566;28;20096;-56
2021/12/04 05:39:35;;;;;;;55.65;30.88;;;103.30;2227.20;;;;;;5029756;28;20100;-55
2021/12/04 05:42:01;;;;;;;53.15;31.02;;;128.00;2252.80;;;;;;5029630;28;20060;-63
2021/12/04 05:44:29;;;;;;;63.40;36.15;;;128.00;2252.80;;;;;;5029110;28;20059;-57
2021/12/04 05:47:08;;;;;;;58.05;34.88;;;128.20;2252.80;;;;;;5029518;28;20061;-61
2021/12/04 05:50:02;;;;;;;75.53;40.50;;;103.30;2227.20;;;;;;5029574;28;20480;-69
2021/12/04 05:52:51;;;;;;;78.70;45.50;;;103.20;2227.20;;;;;;5029077;28;20045;-64
2021/12/04 05:55:21;;;;;;;98.78;55.53;;;103.30;2227.20;;;;;;5029369;28;20314;-64
2021/12/04 05:57:47;;;;;;;132.48;75.18;;;103.30;2227.20;;;;;;5028973;28;20029;-64
2021/12/04 06:00:17;;;;;;;195.38;100.55;;;128.00;2252.80;;;;;;5031201;28;20556;-67
2021/12/04 06:02:43;;;;;;;367.23;175.68;;;128.10;2252.80;;;;;;5031486;28;20034;-67
2021/12/04 06:05:09;;;;;;;450.33;209.18;;;128.20;2252.80;;;;;;5031147;28;20387;-64
2021/12/04 06:07:35;;;;;;;411.30;189.90;;;128.30;2252.80;;;;;;5030963;28;20030;-62
2021/12/04 06:10:02;;;;;;;472.80;223.15;;;128.20;2252.80;;;;;;5031032;28;20024;-67
2021/12/04 06:12:28;;;;;;;104.25;56.42;;;128.30;2252.80;;;;;;5030953;28;20490;-61
2021/12/04 06:14:53;;;;;;;95.57;53.70;;;128.20;2252.80;;;;;;5031061;28;20025;-67
2021/12/04 06:17:20;;;;;;;100.65;58.65;;;128.10;2252.80;;;;;;5030921;28;20026;-66
2021/12/04 06:22:42;;;;;;;94.85;56.00;;;103.30;2227.20;;;;;;5048674;28;20048;-71
2021/12/04 06:25:10;;;;;;;82.63;50.03;;;128.00;2252.80;;;;;;5048511;28;20033;-67
2021/12/04 06:27:37;;;;;;;75.90;48.30;;;103.20;2227.20;;;;;;5048495;28;20293;-69
2021/12/04 06:30:07;;;;;;;86.38;50.53;;;103.30;2227.20;;;;;;5048351;28;20047;-65
2021/12/04 06:32:36;;;;;;;76.57;48.33;;;103.30;2227.20;;;;;;5048655;28;20111;-71
2021/12/04 06:35:06;;;;;;;86.93;51.45;;;103.30;2227.20;;;;;;5048159;28;20025;-70
2021/12/04 06:37:32;;;;;;;98.45;58.53;;;128.10;2252.80;;;;;;5048458;28;20387;-64
2021/12/04 06:39:59;;;;;;;96.22;56.85;;;128.20;2252.80;;;;;;5048192;28;20029;-64
2021/12/04 06:42:24;;;;;;;124.53;71.90;;;128.20;2252.80;;;;;;5048455;28;20374;-67
2021/12/04 06:44:53;;;;;;;111.20;67.18;;;128.20;2252.80;;;;;;5048018;28;20025;-66
2021/12/04 06:47:19;;;;;;;90.68;58.85;;;128.20;2252.80;;;;;;5048046;28;20033;-64
2021/12/04 06:49:45;;;;;;;89.07;49.50;;;128.40;2252.80;;;;;;5048322;28;20387;-64
2021/12/04 06:52:23;;;;;;;60.38;38.00;;;128.60;2252.80;;;;;;5047570;28;20098;-62
2021/12/04 06:54:55;;;;;;;67.65;41.08;;;128.60;2252.80;;;;;;5047556;28;20120;-63
2021/12/04 06:57:22;;;;;;;87.55;51.58;;;128.50;2252.80;;;;;;5047794;28;20159;-61
2021/12/04 06:59:49;;;;;;;78.13;43.72;;;128.40;2252.80;;;;;;5036895;28;20073;-63
2021/12/04 07:02:15;;;;;;;90.03;53.42;;;128.40;2252.80;;;;;;5030280;28;20480;-59
2021/12/04 07:04:41;;;;;;;86.97;54.67;;;128.20;2252.80;;;;;;5029966;28;20018;-59
2021/12/04 07:07:08;;;;;;;88.07;54.22;;;128.50;2252.80;;;;;;5030145;28;20391;-58
2021/12/04 07:09:36;;;;;;;89.65;55.35;;;128.40;2252.80;;;;;;5030264;28;20026;-62
2021/12/04 07:12:02;;;;;;;69.85;43.47;;;128.50;2252.80;;;;;;5030140;28;20482;-62
2021/12/04 07:14:29;;;;;;;78.30;45.05;;;128.60;2252.80;;;;;;5029875;28;20025;-67
2021/12/04 07:16:56;;;;;;;79.45;51.60;;;128.40;2252.80;;;;;;5030192;28;20383;-57
2021/12/04 07:19:22;;;;;;;67.28;44.40;;;128.40;2252.80;;;;;;5029851;28;20092;-61
2021/12/04 07:21:48;;;;;;;67.88;43.42;;;128.60;2252.80;;;;;;5029914;28;20411;-61
2021/12/04 07:24:14;;;;;;;54.55;38.08;;;153.80;2252.80;;;;;;5029997;28;20079;-59
2021/12/04 07:26:40;;;;;;;88.97;56.42;;;153.80;2252.80;;;;;;5029751;28;20487;-60
2021/12/04 07:29:06;;;;;;;87.45;58.65;;;154.20;2252.80;;;;;;5029722;28;20068;-66
2021/12/04 07:31:33;;;;;;;91.90;59.42;;;154.50;2252.80;;;;;;5030040;28;20061;-62
2021/12/04 07:33:59;;;;;;;76.32;49.40;;;154.40;2252.80;;;;;;5029860;28;20022;-59
2021/12/04 07:36:26;;;;;;;84.25;51.92;;;154.00;2252.80;;;;;;5038592;28;20483;-64
2021/12/04 07:38:53;;;;;;;60.33;42.25;;;153.70;2252.80;;;;;;5030691;28;20492;-65
2021/12/04 07:41:19;;;;;;;54.85;35.45;;;153.60;2252.80;;;;;;5028827;28;20125;-64
2021/12/04 07:43:45;;;;;;;57.70;38.65;;;153.70;2252.80;;;;;;5031628;28;20112;-67
2021/12/04 07:46:11;;;;;;;72.53;50.35;;;154.20;2252.80;;;;;;5040016;28;20064;-66
2021/12/04 07:48:36;;;;;;;111.25;77.88;;;154.30;2252.80;;;;;;5039217;28;20057;-63
2021/12/04 07:51:04;;;;;;;85.88;56.95;;;153.90;2252.80;;;;;;5047093;28;20052;-60
2021/12/04 07:53:30;;;;;;;62.90;43.03;;;154.40;2252.80;;;;;;5049502;28;20036;-61
2021/12/04 07:55:56;;;;;;;62.78;42.35;;;154.50;2252.80;;;;;;5049642;28;20021;-61
2021/12/04 07:58:22;;;;;;;57.72;38.70;;;179.20;2252.80;;;;;;5049388;28;20029;-58
2021/12/04 08:00:48;;;;;;;64.07;42.42;;;154.30;2252.80;;;;;;5049215;28;20075;-61
2021/12/04 08:03:14;;;;;;;55.75;39.25;;;179.30;2252.80;;;;;;5049687;28;20041;-58
2021/12/04 08:05:39;;;;;;;41.85;30.67;;;179.80;2252.80;;;;;;5049708;28;20040;-57
2021/12/04 08:08:05;;;;;;;51.60;35.78;;;179.50;2252.80;;;;;;5052985;28;20037;-58
2021/12/04 08:10:33;;;;;;;63.15;37.00;;;179.60;2252.80;;;;;;5053427;28;20021;-64
2021/12/04 08:13:01;;;;;;;59.15;41.00;;;179.60;2252.80;;;;;;5053159;28;20033;-59
2021/12/04 08:15:28;;;;;;;48.03;37.45;;;204.90;2252.80;;;;;;5053389;28;20382;-57
2021/12/04 08:17:54;;;;;;;78.85;54.85;;;205.30;2252.80;;;;;;5053245;28;20111;-63
2021/12/04 08:22:55;;;;;;;59.15;38.55;;;205.00;2252.80;;;;;;5251063;22;20103;-62
2021/12/04 08:25:22;;;;;;;55.65;38.65;;;205.60;2252.80;;;;;;5030875;28;20029;-61
2021/12/04 08:27:49;;;;;;;51.92;35.08;;;205.30;2252.80;;;;;;5031940;28;20041;-63
2021/12/04 08:30:21;;;;;;;52.78;37.17;;;205.00;2252.80;;;;;;5032206;28;20030;-62
2021/12/04 08:32:49;;;;;;;51.43;35.60;;;205.30;2252.80;;;;;;5032075;28;20029;-62
2021/12/04 08:35:17;;;;;;;51.85;39.55;;;205.00;2252.80;;;;;;5032004;28;20049;-62
2021/12/04 08:37:44;;;;;;;63.40;44.40;;;179.50;2252.80;;;;;;5031893;28;20033;-63
2021/12/04 08:40:14;;;;;;;49.08;34.95;;;180.00;2252.80;;;;;;5032269;28;20053;-61
2021/12/04 08:42:41;;;;;;;53.97;37.45;;;180.10;2252.80;;;;;;5031836;28;20136;-63
2021/12/04 08:45:08;;;;;;;48.50;36.03;;;204.80;2252.80;;;;;;5031453;28;20018;-61
2021/12/04 08:47:34;;;;;;;57.40;39.78;;;180.00;2252.80;;;;;;5014204;28;20069;-58
2021/12/04 08:50:00;;;;;;;61.70;39.60;;;179.80;2252.80;;;;;;5014370;28;20030;-62
2021/12/04 08:52:26;;;;;;;47.17;34.03;;;204.80;2252.80;;;;;;5011680;28;20036;-63
2021/12/04 08:54:52;;;;;;;55.85;39.55;;;231.20;2252.80;;;;;;5012010;28;20037;-64
2021/12/04 08:57:18;;;;;;;45.65;34.17;;;256.30;2252.80;;;;;;5011990;28;20038;-63
2021/12/04 08:59:49;;;;;;;50.10;36.15;;;282.00;2278.40;;;;;;5014697;28;20048;-63
2021/12/04 09:02:17;;;;;;;62.25;44.47;;;307.40;2304.00;;;;;;5020893;28;20029;-62
2021/12/04 09:04:46;;;;;;;45.75;34.53;;;332.90;2329.60;;;;;;5020070;28;20372;-62
2021/12/04 09:07:12;;;;;;;59.65;41.92;;;333.20;2329.60;;;;;;5025032;28;20025;-61
2021/12/04 09:09:38;;;;;;;54.38;38.75;;;333.70;2304.00;;;;;;5018456;28;20113;-64
2021/12/04 09:12:07;;;;;;;48.25;35.78;;;307.70;2304.00;;;;;;5022138;28;20546;-62
2021/12/04 09:14:35;;;;;;;54.83;38.63;;;282.00;2278.40;;;;;;5032431;28;20026;-62
2021/12/04 09:17:05;;;;;;;52.95;36.92;;;256.70;2252.80;;;;;;5032289;28;20064;-59
2021/12/04 09:19:31;;;;;;;111.07;67.85;;;231.20;2252.80;;;;;;5031764;28;20483;-61
2021/12/04 09:21:57;;;;;;;66.18;43.45;;;230.90;2252.80;;;;;;5031729;28;20463;-61
2021/12/04 09:24:27;;;;;;;57.65;36.55;;;230.60;2252.80;;;;;;5032056;28;20053;-59
2021/12/04 10:13:51;;;;;;;76.68;45.80;;;179.80;2252.80;;;;;;4949462;29;20083;-64
2021/12/04 10:34:55;;;;;;;63.08;39.40;;;180.10;2252.80;;;;;;5026009;28;20040;-63
2021/12/04 10:37:24;;;;;;;120.75;77.38;;;204.80;2252.80;;;;;;5028890;28;20036;-61
2021/12/04 10:39:57;;;;;;;72.22;43.05;;;205.00;2252.80;;;;;;5029139;28;20087;-58
2021/12/04 10:42:27;;;;;;;55.57;35.20;;;180.10;2252.80;;;;;;5028880;28;20029;-59
2021/12/04 10:44:56;;;;;;;47.35;31.80;;;205.00;2252.80;;;;;;5029198;28;20364;-60
2021/12/04 10:47:25;;;;;;;52.58;30.70;;;205.00;2252.80;;;;;;5028836;28;20572;-58
2021/12/04 10:55:34;;;;;;;36.25;25.35;;;204.80;2252.80;;;;;;5011598;28;20132;-59
2021/12/04 11:03:28;;;;;;;47.45;30.70;;;205.00;2252.80;;;;;;4948335;29;20047;-57
2021/12/04 11:41:32;;;;;;;42.17;27.88;;;230.40;2252.80;;;;;;5012956;28;20095;-57
2021/12/04 11:44:26;;;;;;;53.67;38.47;;;230.40;2252.80;;;;;;5022100;28;20064;-64
2021/12/04 11:46:54;;;;;;;45.70;30.08;;;230.40;2252.80;;;;;;5022342;28;20076;-61
2021/12/04 11:49:26;;;;;;;61.53;40.33;;;230.40;2252.80;;;;;;5021722;28;20038;-61
2021/12/04 11:52:14;;;;;;;32.50;21.10;;;230.50;2252.80;;;;;;5021664;28;20037;-64
2021/12/04 11:54:59;;;;;;;40.05;29.08;;;230.50;2252.80;;;;;;5021029;28;20022;-62
2021/12/04 11:57:32;;;;;;;85.70;57.60;;;230.40;2252.80;;;;;;5014164;28;20391;-62
2021/12/04 12:00:25;;;;;;;53.78;35.65;;;205.70;2252.80;;;;;;5013977;28;20026;-63
2021/12/04 12:03:08;;;;;;;58.83;40.17;;;205.70;2252.80;;;;;;5013827;28;20395;-60
2021/12/04 12:05:41;;;;;;;94.53;62.33;;;230.40;2252.80;;;;;;5013636;28;20025;-60
2021/12/04 12:08:07;;;;;;;120.28;72.90;;;205.70;2252.80;;;;;;4996186;28;20042;-62
2021/12/04 12:10:34;;;;;;;74.82;45.78;;;205.70;2252.80;;;;;;5013928;28;20030;-61
2021/12/04 12:13:06;;;;;;;56.30;37.58;;;205.70;2252.80;;;;;;5013913;28;20038;-64
2021/12/04 12:15:35;;;;;;;61.13;40.00;;;205.60;2252.80;;;;;;5013833;28;20043;-62
2021/12/04 12:18:11;;;;;;;52.88;32.72;;;205.70;2252.80;;;;;;4996380;28;20037;-63
2021/12/04 12:20:42;;;;;;;52.30;35.38;;;205.70;2252.80;;;;;;5013392;28;20018;-63
2021/12/04 12:23:11;;;;;;;34.35;24.02;;;230.40;2252.80;;;;;;5012966;28;20054;-62
2021/12/04 12:34:05;;;;;;;22.77;15.60;;;230.60;2252.80;;;;;;5013652;28;20590;-63
2021/12/04 12:36:32;;;;;;;65.05;38.30;;;230.50;2252.80;;;;;;5013386;28;20029;-63
2021/12/04 12:39:00;;;;;;;46.38;30.17;;;230.50;2252.80;;;;;;5012886;28;20037;-62
2021/12/04 12:41:50;;;;;;;44.85;27.80;;;230.50;2252.80;;;;;;5012936;28;20100;-62
2021/12/04 12:44:29;;;;;;;27.60;16.30;;;230.60;2252.80;;;;;;5012456;28;20042;-63
2021/12/04 12:46:59;;;;;;;31.35;20.83;;;230.60;2252.80;;;;;;5012924;28;20045;-62
2021/12/04 12:49:37;;;;;;;39.20;23.23;;;230.50;2252.80;;;;;;5012931;28;20065;-62
2021/12/04 12:52:09;;;;;;;36.85;23.90;;;230.50;2252.80;;;;;;5013004;28;20112;-62
2021/12/04 12:54:43;;;;;;;38.50;25.40;;;230.40;2252.80;;;;;;5011560;28;20034;-61
2021/12/04 12:57:23;;;;;;;26.95;17.55;;;205.70;2252.80;;;;;;5013028;28;20057;-63
2021/12/04 13:14:30;;;;;;;61.70;38.92;;;230.90;2252.80;;;;;;4952242;29;20054;-58
2021/12/04 13:17:07;;;;;;;43.13;30.60;;;230.90;2252.80;;;;;;4951913;29;20023;-61
2021/12/04 13:19:36;;;;;;;39.65;26.50;;;230.90;2252.80;;;;;;4949586;28;20596;-64
2021/12/04 13:22:06;;;;;;;45.40;34.95;;;230.60;2252.80;;;;;;4949861;29;20035;-62
2021/12/04 13:24:35;;;;;;;48.90;32.20;;;230.50;2252.80;;;;;;4949457;28;20098;-63
2021/12/04 13:29:47;;;;;;;55.13;31.83;;;230.50;2252.80;;;;;;4949893;29;20051;-62
2021/12/04 13:32:15;;;;;;;63.50;42.67;;;230.40;2252.80;;;;;;4949359;29;20113;-61
2021/12/04 13:34:43;;;;;;;58.80;39.28;;;230.40;2252.80;;;;;;4949941;29;20569;-64
2021/12/04 13:37:10;;;;;;;54.05;34.55;;;205.70;2252.80;;;;;;4948998;28;20182;-63
2021/12/04 13:39:38;;;;;;;48.38;33.03;;;205.70;2252.80;;;;;;4949004;28;20051;-62
2021/12/04 13:42:04;;;;;;;81.47;50.75;;;205.70;2252.80;;;;;;4949139;28;20078;-58
2021/12/04 13:44:31;;;;;;;83.50;52.60;;;205.70;2252.80;;;;;;4963608;28;20038;-61
2021/12/04 13:47:04;;;;;;;89.22;56.90;;;230.40;2252.80;;;;;;5009530;28;20037;-63
2021/12/04 13:49:54;;;;;;;125.50;73.88;;;230.40;2252.80;;;;;;5009872;28;20442;-61
2021/12/04 13:52:20;;;;;;;96.88;56.65;;;230.40;2252.80;;;;;;5009486;28;20030;-58
2021/12/04 13:54:50;;;;;;;91.97;56.15;;;205.70;2252.80;;;;;;5009470;28;20026;-64
2021/12/04 13:57:17;;;;;;;81.80;53.10;;;205.70;2252.80;;;;;;5009476;28;20581;-56
2021/12/04 13:59:43;;;;;;;51.42;33.67;;;205.50;2252.80;;;;;;5009893;28;20025;-61
2021/12/04 14:02:23;;;;;;;69.93;46.10;;;205.50;2252.80;;;;;;5009876;28;20414;-58
2021/12/04 14:05:02;;;;;;;92.15;70.32;;;205.50;2252.80;;;;;;5009797;28;20452;-58
2021/12/04 14:07:29;;;;;;;107.95;67.75;;;205.50;2252.80;;;;;;5009634;28;20042;-61
2021/12/04 14:09:55;;;;;;;79.00;52.60;;;205.50;2252.80;;;;;;5009171;28;20104;-60
2021/12/04 14:12:21;;;;;;;76.75;52.50;;;205.30;2252.80;;;;;;5008973;28;20495;-62
2021/12/04 14:14:49;;;;;;;156.35;110.72;;;205.20;2252.80;;;;;;5009615;28;20056;-58
2021/12/04 14:17:18;;;;;;;125.05;92.38;;;205.10;2252.80;;;;;;5009671;28;20025;-58
2021/12/04 14:19:45;;;;;;;172.45;130.10;;;204.90;2252.80;;;;;;5009741;28;20034;-63
2021/12/04 14:22:17;;;;;;;176.30;133.30;;;204.90;2252.80;;;;;;5009530;28;20037;-55
2021/12/04 14:24:48;;;;;;;87.78;63.05;;;204.80;2252.80;;;;;;5024010;28;20037;-59
2021/12/04 14:27:23;;;;;;;74.85;53.20;;;204.80;2252.80;;;;;;5018388;28;20037;-58
2021/12/04 14:29:59;;;;;;;98.97;80.72;;;180.10;2252.80;;;;;;5019426;28;20021;-61
2021/12/04 14:32:28;;;;;;;103.78;78.35;;;180.10;2252.80;;;;;;5019461;28;20017;-60
2021/12/04 14:35:00;;;;;;;82.75;60.58;;;180.00;2252.80;;;;;;5019576;28;20029;-61
2021/12/04 14:37:26;;;;;;;89.63;70.38;;;180.00;2252.80;;;;;;5018452;28;20058;-59
2021/12/04 14:39:53;;;;;;;97.53;75.25;;;180.10;2252.80;;;;;;5013076;28;20464;-59
2021/12/04 14:42:26;;;;;;;151.85;127.82;;;180.10;2252.80;;;;;;5010751;28;20060;-58
2021/12/04 14:44:55;;;;;;;147.05;130.70;;;180.10;2252.80;;;;;;5010944;28;20113;-57
2021/12/04 14:47:22;;;;;;;117.93;105.50;;;180.00;2252.80;;;;;;5010651;28;20038;-62
2021/12/04 14:49:51;;;;;;;107.60;96.53;;;180.00;2252.80;;;;;;5010646;28;20038;-57
2021/12/04 14:52:24;;;;;;;69.53;52.10;;;179.90;2252.80;;;;;;5010519;28;20034;-58
2021/12/04 14:54:51;;;;;;;75.53;66.70;;;179.70;2252.80;;;;;;5008465;28;20033;-57
2021/12/04 14:57:22;;;;;;;70.65;51.33;;;179.60;2252.80;;;;;;5008479;28;20137;-57
2021/12/04 15:00:00;;;;;;;116.20;79.97;;;179.50;2252.80;;;;;;5023264;28;20290;-58
2021/12/04 15:02:26;;;;;;;222.68;158.05;;;179.50;2252.80;;;;;;5020672;28;20032;-57
2021/12/04 15:04:52;;;;;;;170.00;120.50;;;179.30;2252.80;;;;;;5018130;28;20033;-57
2021/12/04 15:07:23;;;;;;;166.27;121.97;;;179.40;2252.80;;;;;;5016090;28;20022;-57
2021/12/04 15:09:49;;;;;;;176.23;130.32;;;179.20;2252.80;;;;;;5018002;28;20022;-59
2021/12/04 15:12:34;;;;;;;232.82;164.35;;;179.20;2252.80;;;;;;5015667;28;20025;-58
2021/12/04 15:15:04;;;;;;;151.02;107.00;;;154.40;2252.80;;;;;;5007899;28;20056;-58
2021/12/04 15:17:31;;;;;;;441.38;301.13;;;154.40;2252.80;;;;;;5013617;28;20022;-65
2021/12/04 15:20:10;;;;;;;136.80;99.13;;;154.30;2252.80;;;;;;5014500;28;20064;-62
2021/12/04 15:22:44;;;;;;;193.20;145.70;;;154.30;2252.80;;;;;;5010870;28;20435;-61
2021/12/04 15:25:12;;;;;;;;;;;154.30;2252.80;;;;;;5022261;28;20112;-58
2021/12/04 15:27:37;;;;;;;109.45;95.25;;;154.20;2252.80;;;;;;5027587;28;20020;-57
2021/12/04 15:30:07;;;;;;;73.82;55.38;;;154.10;2252.80;;;;;;5027899;28;20033;-57